Home > Products > Valid Products > TAF

000
FTUS44 KEWX 211300 AAA
TAFDRT
TAF AMD
KDRT 211326Z 2113/2212 08005KT P6SM BKN025
     FM211800 13010KT P6SM BKN050
     FM220100 11005KT P6SM BKN100=



000
FTUS44 KEWX 211300 AAA
TAFAUS
TAF AMD
KAUS 211319Z 2113/2218 VRB03KT P6SM SCT200
     FM211500 08005KT P6SM FEW040=



000
FTUS44 KEWX 211200 AAA
TAFDRT
TAF AMD
KDRT 211244Z 2113/2212 08005KT P6SM BKN015
     FM211500 08005KT P6SM BKN025
     FM211800 13010KT P6SM BKN050
     FM220100 11005KT P6SM BKN100=



000
FTUS44 KEWX 211100
TAFDRT
TAF
KDRT 211122Z 2112/2212 08005KT P6SM BKN025
     FM211800 13010KT P6SM BKN050
     FM220100 11005KT P6SM BKN100=



000
FTUS44 KEWX 211100
TAFSAT
TAF
KSAT 211122Z 2112/2218 VRB03KT P6SM SCT250
     FM211500 09005KT P6SM SCT050=



000
FTUS44 KEWX 211100
TAFAUS
TAF
KAUS 211122Z 2112/2218 VRB03KT P6SM SCT200
     FM211230 VRB03KT 4SM BR FEW250
     FM211500 08005KT P6SM FEW040=



000
FTUS44 KEWX 211100
TAFSAT
TAF
KSAT 211122Z 2112/2218 VRB03KT P6SM SCT250
     FM211500 09005KT P6SM SCT050=



000
FTUS44 KEWX 211100
TAFDRT
TAF
KDRT 211122Z 2112/2212 08005KT P6SM BKN025
     FM211800 13010KT P6SM BKN050
     FM220100 11005KT P6SM BKN100=



000
FTUS44 KEWX 211100
TAFAUS
TAF
KAUS 211122Z 2112/2218 VRB03KT P6SM SCT200
     FM211230 VRB03KT 4SM BR FEW250
     FM211500 08005KT P6SM FEW040=



000
FTUS44 KEWX 210500
TAFDRT
TAF
KDRT 210523Z 2106/2206 11005KT P6SM BKN035 OVC060
     FM211100 10006KT P6SM BKN025
     FM211800 13011KT P6SM BKN040
     FM220100 12007KT P6SM BKN100=



000
FTUS44 KEWX 210500
TAFAUS
TAF
KAUS 210523Z 2106/2212 VRB03KT P6SM FEW030 SCT200
     FM211100 VRB03KT 6SM BR FEW250
     FM211500 08006KT P6SM FEW040 SCT250=



000
FTUS44 KEWX 210500
TAFSAT
TAF
KSAT 210523Z 2106/2212 06005KT P6SM FEW050 BKN250
     FM211100 05004KT 6SM BR SCT015
     FM211500 09006KT P6SM FEW040 SCT050=



000
FTUS44 KEWX 202300
TAFAUS
TAF
KAUS 202323Z 2100/2206 09006KT P6SM FEW030 SCT200
     FM211000 VRB03KT 6SM BR SCT030
     FM211500 08007KT P6SM FEW040 SCT050=



000
FTUS44 KEWX 202300
TAFDRT
TAF
KDRT 202323Z 2100/2124 13008KT P6SM BKN035 OVC060
     FM211000 10006KT P6SM OVC015
     FM211800 13010KT P6SM BKN035=



000
FTUS44 KEWX 202300
TAFSAT
TAF
KSAT 202323Z 2100/2206 09008KT P6SM FEW050
     FM211000 05004KT 5SM BR SCT015
     FM211500 06006KT P6SM SCT040=



000
FTUS44 KEWX 201700
TAFDRT
TAF
KDRT 201726Z 2018/2118 11009KT P6SM SCT025 BKN040
     FM202000 13008KT P6SM BKN035 OVC060
     FM210800 10006KT P6SM OVC015=



000
FTUS44 KEWX 201700
TAFAUS
TAF
KAUS 201726Z 2018/2124 06007KT P6SM FEW030 SCT200
     FM210600 VRB03KT 6SM BR SCT035 BKN050
     FM211700 05007KT P6SM FEW030 SCT050=



000
FTUS44 KEWX 201700
TAFSAT
TAF
KSAT 201726Z 2018/2124 07008KT P6SM BKN040=



000
FTUS44 KEWX 201600 AAA
TAFDRT
TAF AMD
KDRT 201604Z 2016/2112 11009KT P6SM BKN015 OVC060
     FM202000 13008KT P6SM BKN035 OVC060
     FM211000 10006KT P6SM OVC015=



000
FTUS44 KEWX 201400 AAA
TAFSAT
TAF AMD
KSAT 201402Z 2014/2118 04005KT P6SM FEW060 BKN250
     FM201700 10005KT P6SM BKN040=



000
FTUS44 KEWX 201100
TAFAUS
TAF
KAUS 201123Z 2012/2118 VRB02KT P6SM FEW020 SCT040
      TEMPO 2012/2015 3SM BR
     FM201600 06005KT P6SM SCT050 BKN200=



000
FTUS44 KEWX 201100
TAFDRT
TAF
KDRT 201123Z 2012/2112 10005KT P6SM BKN009 OVC050
     FM201600 13010KT P6SM BKN050=



000
FTUS44 KEWX 201100
TAFSAT
TAF
KSAT 201123Z 2012/2118 08005KT P6SM FEW025 BKN250
     FM201230 08005KT P6SM BKN025
     FM201700 10005KT P6SM BKN040=



000
FTUS44 KEWX 200500
TAFSAT
TAF
KSAT 200530Z 2006/2112 08003KT P6SM BKN035
     FM201100 05003KT P6SM BKN015
     FM201700 10007KT P6SM BKN040 BKN200=



000
FTUS44 KEWX 200500
TAFDRT
TAF
KDRT 200530Z 2006/2106 11005KT P6SM BKN150
     FM201200 10007KT P6SM BKN015 OVC050
     FM201600 13008KT P6SM BKN035 BKN200=



000
FTUS44 KEWX 200500
TAFAUS
TAF
KAUS 200530Z 2006/2112 VRB02KT P6SM FEW060
     FM200700 VRB02KT P6SM FEW020 SCT040
      TEMPO 2012/2015 BKN020
     FM201600 06006KT P6SM SCT050 BKN200=



000
FTUS44 KEWX 192300
TAFSAT
TAF
KSAT 192333Z 2000/2106 10008KT P6SM SCT050 BKN080
     FM201000 05003KT P6SM BKN015
     FM201700 10007KT P6SM BKN050 BKN200=



000
FTUS44 KEWX 192300
TAFDRT
TAF
KDRT 192333Z 2000/2024 12008KT P6SM BKN200
     FM200900 10007KT P6SM BKN015 OVC050
     FM201600 13008KT P6SM BKN035 BKN200=



000
FTUS44 KEWX 192300
TAFAUS
TAF
KAUS 192333Z 2000/2106 09006KT P6SM SCT045 BKN060
     FM200500 VRB02KT P6SM FEW020 BKN040
     FM201600 06006KT P6SM SCT050 BKN200=



000
FTUS44 KEWX 192300
TAFDRT
TAF
KDRT 192333Z 2000/2024 12008KT P6SM BKN200
     FM200900 10007KT P6SM BKN015 OVC050
     FM201600 13008KT P6SM BKN035 BKN200=



000
FTUS44 KEWX 192300
TAFSAT
TAF
KSAT 192333Z 2000/2106 10008KT P6SM SCT050 BKN080
     FM201000 05003KT P6SM BKN015
     FM201700 10007KT P6SM BKN050 BKN200=



000
FTUS44 KEWX 192300
TAFAUS
TAF
KAUS 192333Z 2000/2106 09006KT P6SM SCT045 BKN060
     FM200500 VRB02KT P6SM FEW020 BKN040
     FM201600 06006KT P6SM SCT050 BKN200=



000
FTUS44 KEWX 191700
TAFSAT
TAF
KSAT 191728Z 1918/2024 11008KT P6SM SCT050
     FM201100 VRB03KT P6SM BKN020
     FM201500 09006KT P6SM SCT050=



000
FTUS44 KEWX 191700
TAFDRT
TAF
KDRT 191728Z 1918/2018 12011KT P6SM BKN040
     FM200900 10007KT P6SM BKN015 OVC050
     FM201500 13008KT P6SM BKN035=



000
FTUS44 KEWX 191700
TAFAUS
TAF
KAUS 191728Z 1918/2024 08006KT P6SM SCT050
     FM200600 VRB02KT P6SM FEW020 BKN040
     FM201600 06006KT P6SM SCT050=



000
FTUS44 KEWX 191500 AAA
TAFSAT
TAF AMD
KSAT 191515Z 1915/2018 06004KT P6SM SCT020
      TEMPO 1915/1917 BKN006
     FM191700 10008KT P6SM SCT050
     FM200900 VRB03KT P6SM SCT018 SCT040=



000
FTUS44 KEWX 191500 AAA
TAFDRT
TAF AMD
KDRT 191515Z 1915/2012 10012KT P6SM VCSH SCT017 BKN020
     FM191800 12011KT P6SM BKN050=



000
FTUS44 KEWX 191100
TAFDRT
TAF
KDRT 191129Z 1912/2012 10007KT P6SM VCSH SCT017 BKN050
      TEMPO 1912/1916 BKN017
     FM191800 12011KT P6SM BKN050=



000
FTUS44 KEWX 191100
TAFAUS
TAF
KAUS 191129Z 1912/2018 03003KT P6SM SCT020 BKN050
      TEMPO 1912/1914 6SM BR
     FM191700 08006KT P6SM SCT050
     FM200600 VRB02KT P6SM FEW020 SCT040=



000
FTUS44 KEWX 191100
TAFSAT
TAF
KSAT 191129Z 1912/2018 06004KT P6SM SCT020
      TEMPO 1912/1914 6SM BR
     FM191700 10008KT P6SM SCT050
     FM200900 VRB03KT P6SM SCT018 SCT040=



000
FTUS44 KEWX 191000 AAB
TAFDRT
TAF AMD
KDRT 191006Z 1910/2006 10006KT P6SM BKN015
     FM191700 12006KT P6SM BKN035=



000
FTUS44 KEWX 191000 AAB
TAFSAT
TAF AMD
KSAT 191004Z 1910/2012 06004KT P6SM SCT025
      TEMPO 1912/1916 BKN020
     FM191700 09008KT P6SM BKN035
     FM192000 11010KT P6SM SCT045=



000
FTUS44 KEWX 191000 AAA
TAFAUS
TAF AMD
KAUS 191002Z 1910/2012 03003KT P6SM SCT020 BKN050
      TEMPO 1911/1915 BKN020
     FM191700 07006KT P6SM BKN040
     FM192000 09007KT P6SM SCT050=



000
FTUS44 KEWX 190900 AAA
TAFDRT
TAF AMD
KDRT 190904Z 1909/2006 10006KT P6SM BKN050
     FM191100 11007KT P6SM BKN012
     FM191700 12006KT P6SM BKN035=



000
FTUS44 KEWX 190900 AAA
TAFSAT
TAF AMD
KSAT 190901Z 1909/2012 08004KT P6SM SCT025
     FM191100 05004KT P6SM BKN015
     FM191700 09008KT P6SM BKN035
     FM192000 11010KT P6SM SCT045=



000
FTUS44 KEWX 190500
TAFDRT
TAF
KDRT 190526Z 1906/2006 10007KT P6SM SCT080
     FM190900 11007KT P6SM BKN012
     FM191100 10006KT 6SM BR OVC008
     FM191300 11007KT P6SM OVC015
     FM191700 12006KT P6SM BKN035=



000
FTUS44 KEWX 190500
TAFSAT
TAF
KSAT 190526Z 1906/2012 10007KT P6SM FEW060
      TEMPO 1906/1910 BKN015
     FM191000 05004KT P6SM BKN008
     FM191400 06005KT P6SM BKN015
     FM191700 09008KT P6SM BKN035
     FM192000 11010KT P6SM SCT045=



000
FTUS44 KEWX 190500
TAFAUS
TAF
KAUS 190526Z 1906/2012 VRB03KT P6SM FEW070
     FM190900 04003KT P6SM BKN015
     FM191700 07006KT P6SM BKN040
     FM192000 09007KT P6SM SCT050=



000
FTUS44 KEWX 182300
TAFAUS
TAF
KAUS 182321Z 1900/2006 07006KT P6SM FEW050
     FM190900 04003KT P6SM BKN015
     FM191700 07006KT P6SM BKN040
     FM192000 09007KT P6SM SCT050=



000
FTUS44 KEWX 182300
TAFDRT
TAF
KDRT 182321Z 1900/1924 15007KT P6SM FEW050
     FM190800 11007KT P6SM BKN012
     FM191000 10006KT 6SM BR OVC008
     FM191300 11007KT P6SM OVC015
     FM191700 12006KT P6SM BKN035=



000
FTUS44 KEWX 182300
TAFSAT
TAF
KSAT 182321Z 1900/2006 10008KT P6SM FEW060
     FM190700 06005KT P6SM BKN015
     FM191000 05004KT P6SM BKN008
     FM191400 06005KT P6SM BKN015
     FM191700 09008KT P6SM BKN035
     FM192000 11010KT P6SM SCT045=



000
FTUS44 KEWX 181700
TAFDRT
TAF
KDRT 181723Z 1818/1918 12006KT P6SM SCT030 BKN050
     FM190800 11007KT P6SM BKN012
     FM191000 10006KT 6SM BR OVC008
     FM191300 11007KT P6SM OVC015
     FM191700 12006KT P6SM BKN035=



000
FTUS44 KEWX 181700
TAFSAT
TAF
KSAT 181723Z 1818/1924 08008KT P6SM SCT030 BKN050
     FM190900 07005KT P6SM BKN015
     FM191700 09008KT P6SM BKN040=



000
FTUS44 KEWX 181700
TAFAUS
TAF
KAUS 181723Z 1818/1924 06007KT P6SM SCT030 BKN050
     FM191000 04003KT P6SM BKN015
     FM191700 07006KT P6SM BKN040=



000
FTUS44 KEWX 181400 AAA
TAFAUS
TAF AMD
KAUS 181404Z 1814/1918 02003KT P6SM BKN012
      TEMPO 1814/1816 P6SM BKN009
     FM181600 04005KT P6SM BKN025
     FM181800 06007KT P6SM SCT040
     FM190900 04003KT P6SM BKN020
      TEMPO 1910/1914 3SM BR SCT015=



000
FTUS44 KEWX 181400 AAA
TAFSAT
TAF AMD
KSAT 181404Z 1814/1918 06003KT P6SM OVC013
      TEMPO 1814/1816 BKN009
     FM181600 07006KT P6SM BKN025
     FM181800 08008KT P6SM SCT040
     FM190800 07004KT P6SM BKN015
      TEMPO 1911/1913 3SM BR SCT015=



000
FTUS44 KEWX 181400 AAA
TAFDRT
TAF AMD
KDRT 181404Z 1814/1912 15005KT P6SM OVC015
     FM181700 12006KT P6SM BKN025
     FM181900 13007KT P6SM SCT040
     FM190600 11007KT P6SM BKN012
     FM190900 10006KT 6SM BR OVC008=



    US Dept of Commerce
    National Oceanic and Atmospheric Administration
    National Weather Service
    1325 East West Highway
    Silver Spring, MD 20910
    Page Author: NWS Internet Services Team
Disclaimer
Information Quality
Credits
Glossary
Privacy Policy
Freedom of Information Act (FOIA)
About Us
Career Opportunities